^^
Your Local Weather - Clay, NY Station Historical Data
Daily Summary for March 27, 2017 Units:  Metric    English   Both
« Previous Day
Next Day »
Daily Weekly Monthly Yearly Custom
  High: Low: Average:
Temperature: 8.7 °C 1.9 °C 4.9 °C
Dew Point: 5.7 °C 0.9 °C 3.1 °C
Humidity: 94% 79% 88%
Wind Speed: 6.4km/h 0km/h 2.9km/h
Wind Gust: 11.3km/h - -
Wind- - ENE
Pressure: 1019.2 hPa 1011.7 hPa -
Precipitation: 4.32 mm    
Historical Graphs
 
 
Tabular Data for March 27, 2017
Time Temperature Dew Point Pressure Wind Wind Speed Wind Gust Humidity Rainfall Rate (Hourly) solar
00:00 3.9 °C 2.2 °C 1019.2 hPa SE 3.2 km/h 3.2 km/h 89% 0 mm 0 W/m2
00:06 3.9 °C 2.3 °C 1019.2 hPa SE 3.2 km/h 3.2 km/h 89% 0 mm 0 W/m2
00:12 3.9 °C 2.2 °C 1019.2 hPa ESE 3.2 km/h 3.2 km/h 89% 0 mm 0 W/m2
00:18 3.8 °C 2.2 °C 1019.2 hPa SE 3.2 km/h 3.2 km/h 89% 4.06 mm 0 W/m2
00:24 3.7 °C 2.1 °C 1018.8 hPa SE 1.6 km/h 3.2 km/h 89% 2.54 mm 0 W/m2
00:30 3.7 °C 2 °C 1018.8 hPa NE 1.6 km/h 1.6 km/h 89% 1.27 mm 0 W/m2
00:36 3.6 °C 1.9 °C 1018.5 hPa SE 1.6 km/h 6.4 km/h 89% 0 mm 0 W/m2
00:42 3.7 °C 2.2 °C 1018.5 hPa SE 3.2 km/h 3.2 km/h 90% 0 mm 0 W/m2
00:48 3.6 °C 2.1 °C 1018.5 hPa ENE 1.6 km/h 4.8 km/h 90% 0 mm 0 W/m2
00:54 3.5 °C 2 °C 1018.2 hPa SE 3.2 km/h 3.2 km/h 90% 0 mm 0 W/m2
01:00 3.5 °C 2 °C 1018.2 hPa East 1.6 km/h 1.6 km/h 90% 0 mm 0 W/m2
01:06 3.6 °C 2.1 °C 1018.2 hPa SSE 1.6 km/h 8 km/h 90% 0 mm 0 W/m2
01:12 3.6 °C 2.1 °C 1018.2 hPa ESE 3.2 km/h 3.2 km/h 90% 0 mm 0 W/m2
01:18 3.7 °C 2.2 °C 1017.8 hPa SE 3.2 km/h 3.2 km/h 90% 0 mm 0 W/m2
01:24 3.7 °C 2.2 °C 1017.5 hPa ENE 3.2 km/h 4.8 km/h 90% 0 mm 0 W/m2
01:30 3.6 °C 1.9 °C 1017.5 hPa SE 3.2 km/h 3.2 km/h 89% 0 mm 0 W/m2
01:36 3.6 °C 1.9 °C 1017.5 hPa ESE 3.2 km/h 4.8 km/h 89% 0 mm 0 W/m2
01:42 3.6 °C 1.9 °C 1017.2 hPa East 3.2 km/h 8 km/h 89% 0 mm 0 W/m2
01:48 3.6 °C 2.1 °C 1016.8 hPa East 3.2 km/h 9.7 km/h 90% 0 mm 0 W/m2
01:54 3.8 °C 2.1 °C 1016.8 hPa ESE 4.8 km/h 11.3 km/h 89% 0 mm 0 W/m2
02:00 3.9 °C 2.2 °C 1016.8 hPa SE 6.4 km/h 6.4 km/h 89% 0 mm 0 W/m2
02:06 3.9 °C 2.1 °C 1017.2 hPa East 4.8 km/h 11.3 km/h 88% 0 mm 0 W/m2
02:12 4.1 °C 2.2 °C 1016.8 hPa ENE 4.8 km/h 6.4 km/h 88% 0 mm 0 W/m2
02:18 4.1 °C 2.2 °C 1016.8 hPa ESE 3.2 km/h 6.4 km/h 88% 0 mm 0 W/m2
02:24 3.3 °C 1.3 °C 1016.8 hPa ENE 3.2 km/h 6.4 km/h 87% 0 mm 0 W/m2
02:30 2.8 °C 1 °C 1016.8 hPa ESE 3.2 km/h 3.2 km/h 88% 0 mm 0 W/m2
02:36 2.6 °C 0.9 °C 1016.8 hPa East 3.2 km/h 4.8 km/h 89% 0 mm 0 W/m2
02:42 2.6 °C 0.9 °C 1016.5 hPa NE 1.6 km/h 3.2 km/h 89% 0 mm 0 W/m2
02:48 2.4 °C 0.9 °C 1016.8 hPa ENE 3.2 km/h 6.4 km/h 90% 0 mm 0 W/m2
02:54 2.4 °C 0.9 °C 1016.5 hPa ENE 4.8 km/h 6.4 km/h 90% 0 mm 0 W/m2
03:00 2.4 °C 0.9 °C 1016.8 hPa East 4.8 km/h 4.8 km/h 90% 0 mm 0 W/m2
03:06 2.4 °C 1.1 °C 1016.5 hPa ENE 4.8 km/h 8 km/h 91% 0 mm 0 W/m2
03:12 2.3 °C 1 °C 1016.5 hPa East 4.8 km/h 4.8 km/h 91% 0 mm 0 W/m2
03:18 2.4 °C 1.1 °C 1016.5 hPa ENE 3.2 km/h 4.8 km/h 91% 0 mm 0 W/m2
03:24 2.3 °C 0.9 °C 1016.5 hPa ENE 3.2 km/h 3.2 km/h 91% 0 mm 0 W/m2
03:30 2.3 °C 0.9 °C 1016.5 hPa ENE 1.6 km/h 4.8 km/h 91% 0 mm 0 W/m2
03:36 2.2 °C 0.9 °C 1016.5 hPa East 3.2 km/h 6.4 km/h 91% 0 mm 0 W/m2
03:42 2.2 °C 1 °C 1016.1 hPa East 1.6 km/h 3.2 km/h 92% 0 mm 0 W/m2
03:48 2.2 °C 1.1 °C 1015.8 hPa ENE 1.6 km/h 3.2 km/h 92% 0 mm 0 W/m2
03:54 2.2 °C 1 °C 1015.8 hPa ENE 3.2 km/h 3.2 km/h 92% 0 mm 0 W/m2
04:00 2.1 °C 0.9 °C 1015.8 hPa East 3.2 km/h 4.8 km/h 92% 0 mm 0 W/m2
04:06 2.1 °C 0.9 °C 1015.8 hPa East 3.2 km/h 4.8 km/h 92% 1.02 mm 0 W/m2
04:12 2.1 °C 0.9 °C 1015.5 hPa ENE 3.2 km/h 4.8 km/h 92% 1.78 mm 0 W/m2
04:18 2.1 °C 0.9 °C 1015.5 hPa ENE 3.2 km/h 6.4 km/h 92% 2.03 mm 0 W/m2
04:24 2.1 °C 0.9 °C 1015.5 hPa East 3.2 km/h 3.2 km/h 92% 2.03 mm 0 W/m2
04:30 2.2 °C 1 °C 1015.5 hPa ENE 3.2 km/h 4.8 km/h 92% 1.27 mm 0 W/m2
04:36 2.1 °C 0.9 °C 1015.1 hPa ENE 3.2 km/h 8 km/h 92% 0 mm 0 W/m2
04:42 2.1 °C 0.9 °C 1014.8 hPa East 4.8 km/h 8 km/h 92% 0 mm 0 W/m2
04:48 2.3 °C 1.3 °C 1015.1 hPa ENE 3.2 km/h 8 km/h 93% 0 mm 0 W/m2
04:54 2.3 °C 1.1 °C 1014.8 hPa ENE 3.2 km/h 3.2 km/h 92% 0 mm 0 W/m2
05:00 2.2 °C 1.2 °C 1014.8 hPa East 3.2 km/h 4.8 km/h 93% 0 mm 0 W/m2
05:06 2.3 °C 1.3 °C 1014.8 hPa ENE 3.2 km/h 6.4 km/h 93% 0 mm 0 W/m2
05:12 2.2 °C 1.2 °C 1014.8 hPa ESE 3.2 km/h 3.2 km/h 93% 0 mm 0 W/m2
05:18 2.2 °C 1.2 °C 1014.8 hPa East 3.2 km/h 3.2 km/h 93% 0 mm 0 W/m2
05:24 2.2 °C 1.2 °C 1014.8 hPa ESE 1.6 km/h 3.2 km/h 93% 0 mm 0 W/m2
05:30 2.2 °C 1.2 °C 1014.8 hPa SE 3.2 km/h 3.2 km/h 93% 0 mm 0 W/m2
05:36 2.2 °C 1.2 °C 1014.8 hPa ESE 1.6 km/h 3.2 km/h 93% 0 mm 0 W/m2
05:42 2.1 °C 1.1 °C 1014.8 hPa East 1.6 km/h 4.8 km/h 93% 0 mm 0 W/m2
05:48 2.1 °C 1.1 °C 1014.8 hPa ENE 4.8 km/h 4.8 km/h 93% 0 mm 0 W/m2
05:54 2 °C 1 °C 1014.8 hPa East 4.8 km/h 8 km/h 93% 0 mm 0 W/m2
06:00 2.1 °C 1.1 °C 1014.8 hPa ESE 4.8 km/h 4.8 km/h 93% 0 mm 0 W/m2
06:06 2.1 °C 1.1 °C 1014.4 hPa East 3.2 km/h 4.8 km/h 93% 3.05 mm 0 W/m2
06:12 2.1 °C 1.1 °C 1014.4 hPa ENE 4.8 km/h 4.8 km/h 93% 3.56 mm 0 W/m2
06:18 2.1 °C 1.1 °C 1014.4 hPa ENE 4.8 km/h 6.4 km/h 93% 2.29 mm 0 W/m2
06:24 2.1 °C 1.1 °C 1014.4 hPa East 4.8 km/h 4.8 km/h 93% 2.29 mm 0 W/m2
06:30 2.1 °C 1.1 °C 1014.1 hPa ENE 4.8 km/h 4.8 km/h 93% 2.03 mm 0 W/m2
06:36 2.1 °C 1.1 °C 1014.4 hPa ENE 6.4 km/h 8 km/h 93% 1.52 mm 0 W/m2
06:42 2 °C 1 °C 1014.1 hPa East 4.8 km/h 4.8 km/h 93% 1.27 mm 0 W/m2
06:48 1.9 °C 0.9 °C 1013.8 hPa East 3.2 km/h 8 km/h 93% 1.02 mm 0 W/m2
06:54 2 °C 1 °C 1013.8 hPa East 4.8 km/h 4.8 km/h 93% 1.02 mm 0 W/m2
07:00 2.1 °C 1.1 °C 1014.1 hPa ENE 4.8 km/h 4.8 km/h 93% 2.03 mm 0 W/m2
07:06 2.1 °C 1.1 °C 1013.8 hPa ENE 3.2 km/h 4.8 km/h 93% 1.78 mm 0 W/m2
07:12 2 °C 1 °C 1014.1 hPa ENE 3.2 km/h 3.2 km/h 93% 1.78 mm 0 W/m2
07:18 2.1 °C 1.1 °C 1014.4 hPa ENE 3.2 km/h 3.2 km/h 93% 1.02 mm 5 W/m2
07:24 2.1 °C 1.1 °C 1014.4 hPa East 3.2 km/h 3.2 km/h 93% 0 mm 7 W/m2
07:30 2.1 °C 1.1 °C 1014.1 hPa ENE 3.2 km/h 3.2 km/h 93% 0 mm 9 W/m2
07:36 2.2 °C 1.2 °C 1014.1 hPa ENE 3.2 km/h 4.8 km/h 93% 0 mm 11 W/m2
07:42 2.3 °C 1.3 °C 1014.1 hPa ENE 3.2 km/h 6.4 km/h 93% 0 mm 11 W/m2
07:48 2.3 °C 1.3 °C 1014.4 hPa East 3.2 km/h 8 km/h 93% 0 mm 12 W/m2
07:54 2.3 °C 1.3 °C 1014.4 hPa NE 3.2 km/h 3.2 km/h 93% 0 mm 26 W/m2
08:00 2.2 °C 1.2 °C 1014.4 hPa ENE 3.2 km/h 11.3 km/h 93% 0 mm 32 W/m2
08:06 2.3 °C 1.3 °C 1014.4 hPa ENE 4.8 km/h 11.3 km/h 93% 0 mm 67 W/m2
08:12 2.4 °C 1.4 °C 1014.4 hPa ENE 4.8 km/h 4.8 km/h 93% 0 mm 40 W/m2
08:18 2.4 °C 1.4 °C 1014.4 hPa East 4.8 km/h 4.8 km/h 93% 0 mm 46 W/m2
08:26 2.5 °C 1.5 °C 1014.4 hPa NE 4.8 km/h 8 km/h 93% 0 mm 60 W/m2
08:32 2.6 °C 1.6 °C 1014.4 hPa ENE 4.8 km/h 4.8 km/h 93% 0 mm 60 W/m2
08:38 2.6 °C 1.6 °C 1014.4 hPa ENE 4.8 km/h 4.8 km/h 93% 0 mm 54 W/m2
08:44 2.6 °C 1.6 °C 1014.4 hPa East 4.8 km/h 4.8 km/h 93% 0 mm 53 W/m2
08:50 2.7 °C 1.8 °C 1014.1 hPa ENE 4.8 km/h 6.4 km/h 94% 0 mm 63 W/m2
08:56 2.8 °C 1.9 °C 1014.1 hPa East 4.8 km/h 6.4 km/h 94% 0 mm 102 W/m2
09:02 3.1 °C 2.2 °C 1014.1 hPa ENE 4.8 km/h 6.4 km/h 94% 0 mm 120 W/m2
09:08 3.2 °C 2.2 °C 1014.1 hPa East 4.8 km/h 6.4 km/h 93% 0 mm 127 W/m2
09:14 3.4 °C 2.5 °C 1014.1 hPa ENE 4.8 km/h 8 km/h 94% 0 mm 132 W/m2
09:20 3.6 °C 2.6 °C 1014.1 hPa ENE 4.8 km/h 6.4 km/h 93% 0 mm 137 W/m2
09:26 3.8 °C 2.9 °C 1013.8 hPa ENE 4.8 km/h 6.4 km/h 94% 0 mm 142 W/m2
09:32 3.9 °C 3.1 °C 1013.8 hPa East 4.8 km/h 4.8 km/h 94% 0 mm 156 W/m2
09:38 4.1 °C 3.2 °C 1013.8 hPa ENE 4.8 km/h 8 km/h 94% 0 mm 169 W/m2
09:44 4.3 °C 3.3 °C 1013.8 hPa ENE 4.8 km/h 6.4 km/h 93% 0 mm 185 W/m2
09:50 4.5 °C 3.6 °C 1013.8 hPa ENE 3.2 km/h 3.2 km/h 94% 0 mm 260 W/m2
09:56 4.7 °C 3.8 °C 1013.8 hPa ENE 3.2 km/h 9.7 km/h 94% 0 mm 188 W/m2
10:02 4.9 °C 3.8 °C 1013.8 hPa ENE 4.8 km/h 4.8 km/h 93% 0 mm 169 W/m2
10:08 4.9 °C 3.9 °C 1013.4 hPa ENE 4.8 km/h 4.8 km/h 93% 0 mm 91 W/m2
10:14 4.9 °C 3.8 °C 1013.4 hPa ENE 4.8 km/h 4.8 km/h 93% 0 mm 141 W/m2
10:20 5 °C 3.9 °C 1013.4 hPa ENE 4.8 km/h 4.8 km/h 93% 0 mm 114 W/m2
10:26 5 °C 3.9 °C 1013.4 hPa NE 3.2 km/h 6.4 km/h 93% 0 mm 123 W/m2
10:32 4.9 °C 3.8 °C 1013.4 hPa ENE 4.8 km/h 6.4 km/h 92% 0 mm 151 W/m2
10:38 5.1 °C 3.9 °C 1013.4 hPa ENE 3.2 km/h 8 km/h 92% 0 mm 111 W/m2
10:44 5.2 °C 4 °C 1013.4 hPa ENE 3.2 km/h 6.4 km/h 92% 0 mm 67 W/m2
10:50 5.1 °C 3.9 °C 1013.4 hPa ENE 1.6 km/h 3.2 km/h 92% 0 mm 125 W/m2
10:56 5.2 °C 4 °C 1013.1 hPa ENE 3.2 km/h 8 km/h 92% 0 mm 183 W/m2
11:02 5.2 °C 3.9 °C 1013.1 hPa ENE 4.8 km/h 6.4 km/h 91% 0 mm 178 W/m2
11:08 5.3 °C 3.9 °C 1013.1 hPa ENE 4.8 km/h 8 km/h 91% 0 mm 186 W/m2
11:14 5.4 °C 4.1 °C 1013.1 hPa ENE 4.8 km/h 4.8 km/h 91% 0 mm 144 W/m2
11:20 5.4 °C 3.9 °C 1013.1 hPa ENE 4.8 km/h 4.8 km/h 90% 0 mm 137 W/m2
11:26 5.5 °C 4 °C 1013.1 hPa ENE 3.2 km/h 4.8 km/h 90% 0 mm 118 W/m2
11:32 5.6 °C 4.1 °C 1013.4 hPa NE 1.6 km/h 3.2 km/h 90% 0 mm 116 W/m2
11:38 5.6 °C 4.1 °C 1013.4 hPa NE 1.6 km/h 4.8 km/h 90% 0 mm 91 W/m2
11:44 5.5 °C 4 °C 1013.4 hPa NE 3.2 km/h 3.2 km/h 90% 0 mm 84 W/m2
11:50 5.5 °C 4 °C 1013.4 hPa NE 3.2 km/h 3.2 km/h 90% 0 mm 107 W/m2
11:56 5.4 °C 3.8 °C 1013.1 hPa NE 1.6 km/h 3.2 km/h 89% 0 mm 107 W/m2
12:02 5.4 °C 3.8 °C 1013.4 hPa NE 1.6 km/h 3.2 km/h 89% 0 mm 146 W/m2
12:08 5.6 °C 3.9 °C 1013.4 hPa ENE 1.6 km/h 6.4 km/h 89% 0 mm 144 W/m2
12:14 5.7 °C 4 °C 1013.4 hPa ENE 1.6 km/h 3.2 km/h 89% 0 mm 137 W/m2
12:20 5.7 °C 4 °C 1013.1 hPa ENE 3.2 km/h 3.2 km/h 89% 0 mm 107 W/m2
12:26 5.7 °C 4 °C 1013.1 hPa NE 3.2 km/h 4.8 km/h 89% 0 mm 192 W/m2
12:32 5.9 °C 4.2 °C 1013.1 hPa ENE 4.8 km/h 4.8 km/h 89% 0 mm 207 W/m2
12:38 6.1 °C 4.2 °C 1013.1 hPa ENE 4.8 km/h 4.8 km/h 88% 0 mm 200 W/m2
12:44 6.3 °C 4.5 °C 1013.1 hPa East 4.8 km/h 4.8 km/h 88% 0 mm 315 W/m2
12:50 6.6 °C 4.6 °C 1013.1 hPa ENE 4.8 km/h 4.8 km/h 87% 0 mm 237 W/m2
12:56 6.8 °C 4.8 °C 1013.1 hPa NE 3.2 km/h 4.8 km/h 87% 0 mm 229 W/m2
13:02 6.9 °C 4.8 °C 1013.1 hPa NE 3.2 km/h 3.2 km/h 86% 0 mm 241 W/m2
13:08 7.1 °C 4.9 °C 1013.1 hPa NE 3.2 km/h 3.2 km/h 86% 0 mm 185 W/m2
13:14 7.1 °C 4.9 °C 1013.1 hPa ENE 3.2 km/h 3.2 km/h 86% 0 mm 345 W/m2
13:20 7.4 °C 5.2 °C 1013.1 hPa ENE 3.2 km/h 3.2 km/h 86% 0 mm 316 W/m2
13:26 7.8 °C 5.6 °C 1013.1 hPa NE 3.2 km/h 3.2 km/h 86% 0 mm 352 W/m2
13:32 7.7 °C 5 °C 1013.1 hPa NE 3.2 km/h 3.2 km/h 83% 0 mm 176 W/m2
13:38 7.8 °C 5.2 °C 1013.1 hPa ENE 3.2 km/h 3.2 km/h 84% 0 mm 285 W/m2
13:44 7.9 °C 5.3 °C 1013.1 hPa ENE 3.2 km/h 3.2 km/h 84% 0 mm 221 W/m2
13:50 7.9 °C 5.2 °C 1012.8 hPa ENE 3.2 km/h 3.2 km/h 83% 0 mm 171 W/m2
13:56 8.1 °C 5.6 °C 1012.8 hPa ENE 3.2 km/h 3.2 km/h 84% 0 mm 165 W/m2
14:02 8 °C 5.1 °C 1012.8 hPa ENE 3.2 km/h 4.8 km/h 82% 0 mm 158 W/m2
14:08 7.9 °C 5.1 °C 1012.8 hPa ENE 3.2 km/h 4.8 km/h 82% 0 mm 171 W/m2
14:14 7.9 °C 5.2 °C 1012.8 hPa ENE 1.6 km/h 3.2 km/h 83% 0 mm 250 W/m2
14:20 8 °C 5.1 °C 1012.8 hPa ENE 3.2 km/h 4.8 km/h 82% 0 mm 213 W/m2
14:26 7.9 °C 5.1 °C 1012.4 hPa ENE 3.2 km/h 8 km/h 82% 0 mm 174 W/m2
14:32 8.1 °C 5.3 °C 1012.4 hPa ENE 1.6 km/h 3.2 km/h 83% 0 mm 206 W/m2
14:38 8.1 °C 5.2 °C 1012.4 hPa ENE 1.6 km/h 3.2 km/h 82% 0 mm 332 W/m2
14:44 8.4 °C 5.7 °C 1012.4 hPa ENE 1.6 km/h 3.2 km/h 83% 0 mm 325 W/m2
14:50 8.4 °C 5.3 °C 1012.4 hPa ENE 1.6 km/h 3.2 km/h 81% 0 mm 174 W/m2
14:56 8.2 °C 5.2 °C 1012.1 hPa ENE 3.2 km/h 6.4 km/h 81% 0 mm 214 W/m2
15:02 8.3 °C 5.2 °C 1012.1 hPa ENE 4.8 km/h 4.8 km/h 81% 0 mm 425 W/m2
15:08 8.3 °C 5.3 °C 1012.1 hPa ENE 4.8 km/h 6.4 km/h 81% 0 mm 269 W/m2
15:14 8.6 °C 5.3 °C 1012.1 hPa NE 3.2 km/h 4.8 km/h 80% 0 mm 230 W/m2
15:20 8.4 °C 5.2 °C 1012.1 hPa NE 3.2 km/h 4.8 km/h 80% 0 mm 120 W/m2
15:26 8.3 °C 5.1 °C 1012.1 hPa NE 3.2 km/h 4.8 km/h 80% 0 mm 139 W/m2
15:32 8.2 °C 5 °C 1012.1 hPa NE 3.2 km/h 4.8 km/h 80% 0 mm 237 W/m2
15:38 8.3 °C 5.3 °C 1012.1 hPa NE 3.2 km/h 4.8 km/h 81% 0 mm 309 W/m2
15:42 8.6 °C 5.5 °C 1012.1 hPa NNE 3.2 km/h 3.2 km/h 81% 0 mm 350 W/m2
15:44 8.7 °C 5.6 °C 1012.1 hPa NE 3.2 km/h 4.8 km/h 81% 0 mm 329 W/m2
15:50 8.7 °C 5.2 °C 1012.1 hPa ENE 3.2 km/h 3.2 km/h 79% 0 mm 186 W/m2
15:54 8.6 °C 5.3 °C 1012.1 hPa ENE 3.2 km/h 3.2 km/h 80% 0 mm 172 W/m2
16:00 8.5 °C 5.2 °C 1012.1 hPa ENE 3.2 km/h 3.2 km/h 80% 0 mm 221 W/m2
16:04 8.5 °C 5.2 °C 1012.1 hPa NNE 3.2 km/h 6.4 km/h 80% 0 mm 146 W/m2
16:06 8.4 °C 4.9 °C 1012.1 hPa NE 4.8 km/h 6.4 km/h 79% 0 mm 123 W/m2
16:12 8.2 °C 5 °C 1012.1 hPa ENE 4.8 km/h 8 km/h 80% 0 mm 95 W/m2
16:14 8.2 °C 5 °C 1012.1 hPa ENE 4.8 km/h 8 km/h 80% 0 mm 125 W/m2
16:20 8.3 °C 5.1 °C 1012.1 hPa NE 3.2 km/h 3.2 km/h 80% 0 mm 139 W/m2
16:22 8.2 °C 5 °C 1012.1 hPa NE 3.2 km/h 3.2 km/h 80% 0 mm 114 W/m2
16:28 8.2 °C 5 °C 1011.7 hPa NE 3.2 km/h 3.2 km/h 80% 0 mm 167 W/m2
16:30 8.3 °C 5.2 °C 1012.1 hPa NE 3.2 km/h 3.2 km/h 81% 0 mm 148 W/m2
16:36 8.2 °C 5.2 °C 1012.1 hPa ENE 3.2 km/h 6.4 km/h 81% 0 mm 102 W/m2
16:42 8.3 °C 5.1 °C 1012.1 hPa ENE 3.2 km/h 3.2 km/h 80% 0 mm 141 W/m2
16:44 8.3 °C 5.1 °C 1012.1 hPa ENE 1.6 km/h 4.8 km/h 80% 0 mm 134 W/m2
16:48 8.2 °C 5 °C 1012.1 hPa ENE 3.2 km/h 4.8 km/h 80% 0 mm 88 W/m2
16:54 8.1 °C 4.9 °C 1012.1 hPa NE 3.2 km/h 4.8 km/h 80% 0 mm 72 W/m2
17:00 7.9 °C 4.8 °C 1012.1 hPa ENE 3.2 km/h 3.2 km/h 81% 0 mm 123 W/m2
17:06 7.9 °C 4.8 °C 1012.1 hPa ENE 3.2 km/h 3.2 km/h 81% 0 mm 116 W/m2
17:12 7.9 °C 4.8 °C 1012.1 hPa ENE 3.2 km/h 3.2 km/h 81% 0 mm 114 W/m2
17:18 7.8 °C 4.8 °C 1012.1 hPa ENE 3.2 km/h 4.8 km/h 81% 0 mm 76 W/m2
17:24 7.7 °C 4.7 °C 1012.1 hPa NE 1.6 km/h 4.8 km/h 81% 0 mm 104 W/m2
17:30 7.7 °C 4.6 °C 1012.1 hPa NNE 1.6 km/h 4.8 km/h 81% 0 mm 97 W/m2
17:36 7.6 °C 4.5 °C 1011.7 hPa NE 3.2 km/h 4.8 km/h 81% 0 mm 83 W/m2
17:42 7.4 °C 4.5 °C 1012.1 hPa ENE 3.2 km/h 4.8 km/h 82% 0 mm 62 W/m2
17:48 7.3 °C 4.4 °C 1011.7 hPa ENE 4.8 km/h 4.8 km/h 82% 0 mm 62 W/m2
17:54 7.1 °C 4.2 °C 1011.7 hPa East 4.8 km/h 4.8 km/h 82% 0 mm 53 W/m2
18:00 7.1 °C 4.2 °C 1012.1 hPa East 3.2 km/h 3.2 km/h 82% 0 mm 37 W/m2
18:06 7.1 °C 4.4 °C 1012.1 hPa East 1.6 km/h 1.6 km/h 83% 0 mm 40 W/m2
18:12 6.9 °C 4 °C 1012.1 hPa East 3.2 km/h 3.2 km/h 82% 0 mm 40 W/m2
18:18 6.9 °C 4.2 °C 1012.1 hPa East 1.6 km/h 3.2 km/h 83% 0 mm 33 W/m2
18:24 6.8 °C 4.2 °C 1012.1 hPa East 1.6 km/h 1.6 km/h 83% 0 mm 23 W/m2
18:30 6.8 °C 4.1 °C 1012.1 hPa ENE 1.6 km/h 4.8 km/h 83% 0 mm 18 W/m2
18:36 6.7 °C 4 °C 1012.1 hPa ENE 3.2 km/h 4.8 km/h 83% 0 mm 14 W/m2
18:42 6.6 °C 4.1 °C 1012.1 hPa ENE 1.6 km/h 4.8 km/h 84% 0 mm 9 W/m2
18:48 6.6 °C 4.1 °C 1012.1 hPa ENE 1.6 km/h 4.8 km/h 84% 0 mm 5 W/m2
18:54 6.5 °C 4 °C 1012.1 hPa ENE 1.6 km/h 3.2 km/h 84% 0 mm 0 W/m2
19:00 6.4 °C 3.9 °C 1012.1 hPa ENE 1.6 km/h 1.6 km/h 84% 0 mm 0 W/m2
19:06 6.3 °C 3.8 °C 1012.1 hPa ENE 1.6 km/h 1.6 km/h 84% 0 mm 0 W/m2
19:12 6.3 °C 3.8 °C 1012.1 hPa East 1.6 km/h 1.6 km/h 84% 0 mm 0 W/m2
19:18 6.2 °C 3.7 °C 1012.1 hPa NNE 1.6 km/h 4.8 km/h 84% 0 mm 0 W/m2
19:26 6.1 °C 3.8 °C 1012.4 hPa NE 1.6 km/h 1.6 km/h 85% 0 mm 0 W/m2
19:32 6 °C 3.7 °C 1012.4 hPa NE 1.6 km/h 1.6 km/h 85% 0 mm 0 W/m2
19:38 5.9 °C 3.6 °C 1012.4 hPa NE 1.6 km/h 3.2 km/h 85% 0 mm 0 W/m2
19:44 5.8 °C 3.5 °C 1012.4 hPa NE 1.6 km/h 4.8 km/h 85% 0 mm 0 W/m2
19:50 5.7 °C 3.4 °C 1012.4 hPa NE 1.6 km/h 1.6 km/h 85% 0 mm 0 W/m2
19:56 5.7 °C 3.3 °C 1012.4 hPa NE 1.6 km/h 1.6 km/h 85% 0 mm 0 W/m2
20:02 5.6 °C 3.4 °C 1012.4 hPa NE 1.6 km/h 3.2 km/h 86% 0 mm 0 W/m2
20:08 5.5 °C 3.3 °C 1012.4 hPa NE 1.6 km/h 4.8 km/h 86% 0 mm 0 W/m2
20:14 5.4 °C 3.2 °C 1012.8 hPa NE 1.6 km/h 4.8 km/h 86% 0 mm 0 W/m2
20:20 5.4 °C 3.2 °C 1012.8 hPa Calm     86% 0 mm 0 W/m2
20:26 5.4 °C 3.3 °C 1012.8 hPa Calm   1.6 km/h 86% 0 mm 0 W/m2
20:32 5.5 °C 3.3 °C 1012.8 hPa Calm     86% 0 mm 0 W/m2
20:38 5.5 °C 3.3 °C 1012.8 hPa Calm     86% 0 mm 0 W/m2
20:44 5.4 °C 3.2 °C 1012.8 hPa Calm   3.2 km/h 86% 0 mm 0 W/m2
20:50 5.4 °C 3.2 °C 1012.8 hPa NE 1.6 km/h 1.6 km/h 86% 0 mm 0 W/m2
20:56 5.1 °C 2.9 °C 1012.8 hPa NE 1.6 km/h 1.6 km/h 86% 0 mm 0 W/m2
21:02 5 °C 3 °C 1012.8 hPa Calm     87% 0 mm 0 W/m2
21:08 4.9 °C 2.9 °C 1012.8 hPa Calm     87% 0 mm 0 W/m2
21:14 4.7 °C 2.7 °C 1012.8 hPa Calm     87% 0 mm 0 W/m2
21:20 4.8 °C 2.9 °C 1012.8 hPa Calm     88% 0 mm 0 W/m2
21:26 4.9 °C 3.1 °C 1012.8 hPa Calm   1.6 km/h 88% 0 mm 0 W/m2
21:32 4.8 °C 2.9 °C 1012.8 hPa NE 1.6 km/h 1.6 km/h 88% 0 mm 0 W/m2
21:38 4.7 °C 2.9 °C 1012.8 hPa Calm   1.6 km/h 88% 0 mm 0 W/m2
21:44 4.7 °C 2.8 °C 1012.8 hPa Calm   1.6 km/h 88% 0 mm 0 W/m2
21:50 4.6 °C 2.7 °C 1012.8 hPa Calm     88% 0 mm 0 W/m2
21:56 4.5 °C 2.7 °C 1012.8 hPa Calm   1.6 km/h 88% 0 mm 0 W/m2
22:02 4.5 °C 2.8 °C 1012.8 hPa Calm     89% 0 mm 0 W/m2
22:08 4.4 °C 2.8 °C 1012.8 hPa Calm     89% 0 mm 0 W/m2
22:14 4.5 °C 2.8 °C 1012.8 hPa Calm     89% 0 mm 0 W/m2
22:20 4.6 °C 2.9 °C 1012.8 hPa Calm     89% 0 mm 0 W/m2
22:26 4.4 °C 2.8 °C 1012.8 hPa Calm     89% 0 mm 0 W/m2
22:32 4.4 °C 2.8 °C 1012.8 hPa Calm     89% 0 mm 0 W/m2
22:38 4.6 °C 2.9 °C 1012.8 hPa Calm   1.6 km/h 89% 0 mm 0 W/m2
22:44 4.5 °C 2.8 °C 1012.8 hPa Calm     89% 0 mm 0 W/m2
22:50 4.4 °C 2.8 °C 1012.8 hPa Calm   1.6 km/h 89% 0 mm 0 W/m2
22:56 4.4 °C 2.7 °C 1012.8 hPa Calm   1.6 km/h 89% 0 mm 0 W/m2
23:04 4.5 °C 2.8 °C 1012.8 hPa Calm     89% 0 mm 0 W/m2
23:10 4.5 °C 2.8 °C 1012.8 hPa Calm     89% 0 mm 0 W/m2
23:16 4.4 °C 2.8 °C 1012.8 hPa Calm     89% 0 mm 0 W/m2
23:24 4.3 °C 2.7 °C 1012.8 hPa Calm     89% 0 mm 0 W/m2
23:30 4.2 °C 2.6 °C 1012.8 hPa Calm     89% 0 mm 0 W/m2
23:36 4.2 °C 2.6 °C 1012.8 hPa Calm     89% 0 mm 0 W/m2
23:42 4.3 °C 2.6 °C 1012.8 hPa Calm     89% 0 mm 0 W/m2
23:48 4.3 °C 2.8 °C 1012.8 hPa Calm     90% 0 mm 0 W/m2
23:54 4.2 °C 2.6 °C 1012.8 hPa Calm     89% 0 mm 0 W/m2
Country Meadow, Clay, NY, USA
Compliments of Weather Underground - 2 mb